sensor_id;sensor_type;location;lat;lon;timestamp;pressure;altitude;pressure_sealevel;temperature;humidity
7930;BME280;4010;42.698;23.124;2023-02-17T00:01:51;118349.16;;;-140.64;50.38
7930;BME280;4010;42.698;23.124;2023-02-17T00:04:18;118349.16;;;-140.64;50.65
7930;BME280;4010;42.698;23.124;2023-02-17T00:06:45;118349.16;;;-140.64;51.60
7930;BME280;4010;42.698;23.124;2023-02-17T00:09:11;118349.16;;;-140.64;51.82
7930;BME280;4010;42.698;23.124;2023-02-17T00:11:38;118349.16;;;-140.64;51.64
7930;BME280;4010;42.698;23.124;2023-02-17T00:14:05;118349.16;;;-140.64;52.26
7930;BME280;4010;42.698;23.124;2023-02-17T00:16:32;118349.16;;;-140.64;52.32
7930;BME280;4010;42.698;23.124;2023-02-17T00:19:00;118349.16;;;-140.64;52.71
7930;BME280;4010;42.698;23.124;2023-02-17T00:21:47;118349.16;;;-140.64;52.16
7930;BME280;4010;42.698;23.124;2023-02-17T00:24:14;118349.16;;;-140.64;53.10
7930;BME280;4010;42.698;23.124;2023-02-17T00:26:41;118349.16;;;-140.64;53.15
7930;BME280;4010;42.698;23.124;2023-02-17T00:29:08;118349.16;;;-140.64;53.65
7930;BME280;4010;42.698;23.124;2023-02-17T00:31:35;118349.16;;;-140.64;55.16
7930;BME280;4010;42.698;23.124;2023-02-17T00:34:03;118349.16;;;-140.64;57.10
7930;BME280;4010;42.698;23.124;2023-02-17T00:36:29;118349.16;;;-140.64;58.23
7930;BME280;4010;42.698;23.124;2023-02-17T00:38:56;118349.16;;;-140.64;59.61
7930;BME280;4010;42.698;23.124;2023-02-17T00:41:23;118349.16;;;-140.64;61.07
7930;BME280;4010;42.698;23.124;2023-02-17T00:43:51;118349.16;;;-140.64;62.52
7930;BME280;4010;42.698;23.124;2023-02-17T00:46:18;118349.16;;;-140.64;63.89
7930;BME280;4010;42.698;23.124;2023-02-17T00:48:45;118349.16;;;-140.64;64.73
7930;BME280;4010;42.698;23.124;2023-02-17T00:51:13;118349.16;;;-140.64;65.45
7930;BME280;4010;42.698;23.124;2023-02-17T00:53:41;118349.16;;;-140.64;65.82
7930;BME280;4010;42.698;23.124;2023-02-17T00:56:08;118349.16;;;-140.64;67.05
7930;BME280;4010;42.698;23.124;2023-02-17T00:58:35;118349.16;;;-140.64;67.20
7930;BME280;4010;42.698;23.124;2023-02-17T01:01:02;118349.16;;;-140.64;67.10
7930;BME280;4010;42.698;23.124;2023-02-17T01:03:29;118349.16;;;-140.64;66.77
7930;BME280;4010;42.698;23.124;2023-02-17T01:05:57;118349.16;;;-140.64;66.91
7930;BME280;4010;42.698;23.124;2023-02-17T01:08:25;118349.16;;;-140.64;65.44
7930;BME280;4010;42.698;23.124;2023-02-17T01:10:52;118349.16;;;-140.64;64.62
7930;BME280;4010;42.698;23.124;2023-02-17T01:13:19;118349.16;;;-140.64;63.33
7930;BME280;4010;42.698;23.124;2023-02-17T01:15:48;118349.16;;;-140.64;60.93
7930;BME280;4010;42.698;23.124;2023-02-17T01:18:17;118349.16;;;-140.64;59.15
7930;BME280;4010;42.698;23.124;2023-02-17T01:20:44;118349.16;;;-140.64;58.14
7930;BME280;4010;42.698;23.124;2023-02-17T01:23:12;118349.16;;;-140.64;59.14
7930;BME280;4010;42.698;23.124;2023-02-17T01:25:42;118349.16;;;-140.64;60.02
7930;BME280;4010;42.698;23.124;2023-02-17T01:28:13;118349.16;;;-140.64;61.00
7930;BME280;4010;42.698;23.124;2023-02-17T01:30:40;118349.16;;;-140.64;61.51
7930;BME280;4010;42.698;23.124;2023-02-17T01:33:07;118349.16;;;-140.64;62.21
7930;BME280;4010;42.698;23.124;2023-02-17T01:35:33;118349.16;;;-140.64;63.15
7930;BME280;4010;42.698;23.124;2023-02-17T01:38:00;118349.16;;;-140.64;63.53
7930;BME280;4010;42.698;23.124;2023-02-17T01:40:27;118349.16;;;-140.64;64.06
7930;BME280;4010;42.698;23.124;2023-02-17T01:42:55;118349.16;;;-140.64;64.85
7930;BME280;4010;42.698;23.124;2023-02-17T01:45:48;118349.16;;;-140.64;65.33
7930;BME280;4010;42.698;23.124;2023-02-17T01:48:17;118349.16;;;-140.64;65.52
7930;BME280;4010;42.698;23.124;2023-02-17T01:50:47;118349.16;;;-140.64;66.20
7930;BME280;4010;42.698;23.124;2023-02-17T01:53:17;118349.16;;;-140.64;66.66
7930;BME280;4010;42.698;23.124;2023-02-17T01:55:45;118349.16;;;-140.64;67.89
7930;BME280;4010;42.698;23.124;2023-02-17T01:58:18;118349.16;;;-140.64;69.13
7930;BME280;4010;42.698;23.124;2023-02-17T02:00:47;118349.16;;;-140.64;69.90
7930;BME280;4010;42.698;23.124;2023-02-17T02:03:14;118349.16;;;-140.64;70.19
7930;BME280;4010;42.698;23.124;2023-02-17T02:05:41;118349.16;;;-140.64;70.03
7930;BME280;4010;42.698;23.124;2023-02-17T02:08:08;118349.16;;;-140.64;69.98
7930;BME280;4010;42.698;23.124;2023-02-17T02:10:36;118349.16;;;-140.64;69.89
7930;BME280;4010;42.698;23.124;2023-02-17T02:13:03;118349.16;;;-140.64;70.51
7930;BME280;4010;42.698;23.124;2023-02-17T02:15:34;118349.16;;;-140.64;70.50
7930;BME280;4010;42.698;23.124;2023-02-17T02:18:21;118349.16;;;-140.64;70.87
7930;BME280;4010;42.698;23.124;2023-02-17T02:24:02;118349.16;;;-140.64;70.81
7930;BME280;4010;42.698;23.124;2023-02-17T02:29:58;118349.16;;;-140.64;71.09
7930;BME280;4010;42.698;23.124;2023-02-17T02:32:47;118349.16;;;-140.64;70.91
7930;BME280;4010;42.698;23.124;2023-02-17T02:35:18;118349.16;;;-140.64;71.55
7930;BME280;4010;42.698;23.124;2023-02-17T02:37:51;118349.16;;;-140.64;71.32
7930;BME280;4010;42.698;23.124;2023-02-17T02:40:23;118349.16;;;-140.64;71.14
7930;BME280;4010;42.698;23.124;2023-02-17T02:42:54;118349.16;;;-140.64;71.39
7930;BME280;4010;42.698;23.124;2023-02-17T02:45:21;118349.16;;;-140.64;71.94
7930;BME280;4010;42.698;23.124;2023-02-17T02:47:51;118349.16;;;-140.64;72.20
7930;BME280;4010;42.698;23.124;2023-02-17T02:50:20;118349.16;;;-140.64;72.24
7930;BME280;4010;42.698;23.124;2023-02-17T02:53:03;118349.16;;;-140.64;72.53
7930;BME280;4010;42.698;23.124;2023-02-17T02:55:42;118349.16;;;-140.64;73.33
7930;BME280;4010;42.698;23.124;2023-02-17T02:58:16;118349.16;;;-140.64;73.38
7930;BME280;4010;42.698;23.124;2023-02-17T03:00:50;118349.16;;;-140.64;73.38
7930;BME280;4010;42.698;23.124;2023-02-17T03:03:25;118349.16;;;-140.64;73.16
7930;BME280;4010;42.698;23.124;2023-02-17T03:05:57;118349.16;;;-140.64;72.82
7930;BME280;4010;42.698;23.124;2023-02-17T03:08:27;118349.16;;;-140.64;71.89
7930;BME280;4010;42.698;23.124;2023-02-17T03:10:57;118349.16;;;-140.64;71.57
7930;BME280;4010;42.698;23.124;2023-02-17T03:13:24;118349.16;;;-140.64;71.25
7930;BME280;4010;42.698;23.124;2023-02-17T03:15:50;118349.16;;;-140.64;71.27
7930;BME280;4010;42.698;23.124;2023-02-17T03:18:18;118349.16;;;-140.64;70.97
7930;BME280;4010;42.698;23.124;2023-02-17T03:20:49;118349.16;;;-140.64;71.41
7930;BME280;4010;42.698;23.124;2023-02-17T03:23:16;118349.16;;;-140.64;71.60
7930;BME280;4010;42.698;23.124;2023-02-17T03:25:43;118349.16;;;-140.64;71.86
7930;BME280;4010;42.698;23.124;2023-02-17T03:28:10;118349.16;;;-140.64;71.11
7930;BME280;4010;42.698;23.124;2023-02-17T03:30:36;118349.16;;;-140.64;70.49
7930;BME280;4010;42.698;23.124;2023-02-17T03:33:03;118349.16;;;-140.64;69.25
7930;BME280;4010;42.698;23.124;2023-02-17T03:35:30;118349.16;;;-140.64;68.98
7930;BME280;4010;42.698;23.124;2023-02-17T03:37:58;118349.16;;;-140.64;68.40
7930;BME280;4010;42.698;23.124;2023-02-17T03:40:25;118349.16;;;-140.64;67.74
7930;BME280;4010;42.698;23.124;2023-02-17T03:42:52;118349.16;;;-140.64;68.07
7930;BME280;4010;42.698;23.124;2023-02-17T03:45:18;118349.16;;;-140.64;69.24
7930;BME280;4010;42.698;23.124;2023-02-17T03:47:45;118349.16;;;-140.64;69.53
7930;BME280;4010;42.698;23.124;2023-02-17T03:50:12;118349.16;;;-140.64;69.13
7930;BME280;4010;42.698;23.124;2023-02-17T03:52:38;118349.16;;;-140.64;68.93
7930;BME280;4010;42.698;23.124;2023-02-17T03:55:07;118349.16;;;-140.64;69.12
7930;BME280;4010;42.698;23.124;2023-02-17T03:57:33;118349.16;;;-140.64;69.08
7930;BME280;4010;42.698;23.124;2023-02-17T04:00:00;118349.16;;;-140.64;68.10
7930;BME280;4010;42.698;23.124;2023-02-17T04:02:27;118349.16;;;-140.64;66.94
7930;BME280;4010;42.698;23.124;2023-02-17T04:04:54;118349.16;;;-140.64;64.65
7930;BME280;4010;42.698;23.124;2023-02-17T04:07:21;118349.16;;;-140.64;63.07
7930;BME280;4010;42.698;23.124;2023-02-17T04:09:47;118349.16;;;-140.64;61.46
7930;BME280;4010;42.698;23.124;2023-02-17T04:12:15;118349.16;;;-140.64;61.75
7930;BME280;4010;42.698;23.124;2023-02-17T04:14:42;118349.16;;;-140.64;62.53
7930;BME280;4010;42.698;23.124;2023-02-17T04:17:09;118349.16;;;-140.64;64.10
7930;BME280;4010;42.698;23.124;2023-02-17T04:19:35;118349.16;;;-140.64;64.25
7930;BME280;4010;42.698;23.124;2023-02-17T04:22:02;118349.16;;;-140.64;64.02
7930;BME280;4010;42.698;23.124;2023-02-17T04:24:33;118349.16;;;-140.64;62.81
7930;BME280;4010;42.698;23.124;2023-02-17T04:27:00;118349.16;;;-140.64;62.44
7930;BME280;4010;42.698;23.124;2023-02-17T04:29:28;118349.16;;;-140.64;62.39
7930;BME280;4010;42.698;23.124;2023-02-17T04:31:54;118349.16;;;-140.64;62.43
7930;BME280;4010;42.698;23.124;2023-02-17T04:34:21;118349.16;;;-140.64;63.29
7930;BME280;4010;42.698;23.124;2023-02-17T04:36:48;118349.16;;;-140.64;63.23
7930;BME280;4010;42.698;23.124;2023-02-17T04:39:14;118349.16;;;-140.64;63.60
7930;BME280;4010;42.698;23.124;2023-02-17T04:41:41;118349.16;;;-140.64;64.05
7930;BME280;4010;42.698;23.124;2023-02-17T04:44:08;118349.16;;;-140.64;64.62
7930;BME280;4010;42.698;23.124;2023-02-17T04:46:36;118349.16;;;-140.64;65.33
7930;BME280;4010;42.698;23.124;2023-02-17T04:49:02;118349.16;;;-140.64;66.01
7930;BME280;4010;42.698;23.124;2023-02-17T04:51:29;118349.16;;;-140.64;66.27
7930;BME280;4010;42.698;23.124;2023-02-17T04:53:56;118349.16;;;-140.64;67.08
7930;BME280;4010;42.698;23.124;2023-02-17T04:56:23;118349.16;;;-140.64;66.46
7930;BME280;4010;42.698;23.124;2023-02-17T04:58:49;118349.16;;;-140.64;67.10
7930;BME280;4010;42.698;23.124;2023-02-17T05:01:16;118349.16;;;-140.64;67.76
7930;BME280;4010;42.698;23.124;2023-02-17T05:03:44;118349.16;;;-140.64;68.66
7930;BME280;4010;42.698;23.124;2023-02-17T05:06:11;118349.16;;;-140.64;69.35
7930;BME280;4010;42.698;23.124;2023-02-17T05:08:37;118349.16;;;-140.64;70.10
7930;BME280;4010;42.698;23.124;2023-02-17T05:11:04;118349.16;;;-140.64;70.77
7930;BME280;4010;42.698;23.124;2023-02-17T05:13:31;118349.16;;;-140.64;71.44
7930;BME280;4010;42.698;23.124;2023-02-17T05:15:58;118349.16;;;-140.64;71.99
7930;BME280;4010;42.698;23.124;2023-02-17T05:18:25;118349.16;;;-140.64;72.62
7930;BME280;4010;42.698;23.124;2023-02-17T05:20:53;118349.16;;;-140.64;71.62
7930;BME280;4010;42.698;23.124;2023-02-17T05:23:19;118349.16;;;-140.64;71.85
7930;BME280;4010;42.698;23.124;2023-02-17T05:25:46;118349.16;;;-140.64;72.71
7930;BME280;4010;42.698;23.124;2023-02-17T05:28:13;118349.16;;;-140.64;72.75
7930;BME280;4010;42.698;23.124;2023-02-17T05:30:40;118349.16;;;-140.64;72.12
7930;BME280;4010;42.698;23.124;2023-02-17T05:33:07;118349.16;;;-140.64;72.70
7930;BME280;4010;42.698;23.124;2023-02-17T05:35:33;118349.16;;;-140.64;73.79
7930;BME280;4010;42.698;23.124;2023-02-17T05:38:01;118349.16;;;-140.64;74.50
7930;BME280;4010;42.698;23.124;2023-02-17T05:40:28;118349.16;;;-140.64;72.77
7930;BME280;4010;42.698;23.124;2023-02-17T05:42:55;118349.16;;;-140.64;72.46
7930;BME280;4010;42.698;23.124;2023-02-17T05:45:21;118349.16;;;-140.64;72.58
7930;BME280;4010;42.698;23.124;2023-02-17T05:47:48;118349.16;;;-140.64;73.18
7930;BME280;4010;42.698;23.124;2023-02-17T05:50:15;118349.16;;;-140.64;74.17
7930;BME280;4010;42.698;23.124;2023-02-17T05:52:41;118349.16;;;-140.64;75.16
7930;BME280;4010;42.698;23.124;2023-02-17T05:55:09;118349.16;;;-140.64;74.70
7930;BME280;4010;42.698;23.124;2023-02-17T05:57:36;118349.16;;;-140.64;74.52
7930;BME280;4010;42.698;23.124;2023-02-17T06:00:03;118349.16;;;-140.64;75.09
7930;BME280;4010;42.698;23.124;2023-02-17T06:02:30;118349.16;;;-140.64;74.02
7930;BME280;4010;42.698;23.124;2023-02-17T06:04:57;118349.16;;;-140.64;73.25
7930;BME280;4010;42.698;23.124;2023-02-17T06:07:24;118349.16;;;-140.64;73.29
7930;BME280;4010;42.698;23.124;2023-02-17T06:09:50;118349.16;;;-140.64;73.14
7930;BME280;4010;42.698;23.124;2023-02-17T06:12:18;118349.16;;;-140.64;73.10
7930;BME280;4010;42.698;23.124;2023-02-17T06:14:45;118349.16;;;-140.64;73.21
7930;BME280;4010;42.698;23.124;2023-02-17T06:17:12;118349.16;;;-140.64;73.06
7930;BME280;4010;42.698;23.124;2023-02-17T06:19:38;118349.16;;;-140.64;73.19
7930;BME280;4010;42.698;23.124;2023-02-17T06:22:05;118349.16;;;-140.64;72.84
7930;BME280;4010;42.698;23.124;2023-02-17T06:24:32;118349.16;;;-140.64;72.78
7930;BME280;4010;42.698;23.124;2023-02-17T06:26:59;118349.16;;;-140.64;72.18
7930;BME280;4010;42.698;23.124;2023-02-17T06:29:28;118349.16;;;-140.64;71.04
7930;BME280;4010;42.698;23.124;2023-02-17T06:31:54;118349.16;;;-140.64;70.39
7930;BME280;4010;42.698;23.124;2023-02-17T06:34:21;118349.16;;;-140.64;70.19
7930;BME280;4010;42.698;23.124;2023-02-17T06:36:48;118349.16;;;-140.64;70.04
7930;BME280;4010;42.698;23.124;2023-02-17T06:39:14;118349.16;;;-140.64;69.57
7930;BME280;4010;42.698;23.124;2023-02-17T06:41:41;118349.16;;;-140.64;68.78
7930;BME280;4010;42.698;23.124;2023-02-17T06:44:08;118349.16;;;-140.64;68.44
7930;BME280;4010;42.698;23.124;2023-02-17T06:46:36;118349.16;;;-140.64;68.47
7930;BME280;4010;42.698;23.124;2023-02-17T06:49:02;118349.16;;;-140.64;68.47
7930;BME280;4010;42.698;23.124;2023-02-17T06:51:29;118349.16;;;-140.64;67.85
7930;BME280;4010;42.698;23.124;2023-02-17T06:53:56;118349.16;;;-140.64;67.67
7930;BME280;4010;42.698;23.124;2023-02-17T06:56:22;118349.16;;;-140.64;67.95
7930;BME280;4010;42.698;23.124;2023-02-17T06:58:50;118349.16;;;-140.64;68.06
7930;BME280;4010;42.698;23.124;2023-02-17T07:01:18;118349.16;;;-140.64;67.60
7930;BME280;4010;42.698;23.124;2023-02-17T07:03:47;118349.16;;;-140.64;67.49
7930;BME280;4010;42.698;23.124;2023-02-17T07:06:14;118349.16;;;-140.64;67.60
7930;BME280;4010;42.698;23.124;2023-02-17T07:08:40;118349.16;;;-140.64;67.15
7930;BME280;4010;42.698;23.124;2023-02-17T07:11:08;118349.16;;;-140.64;66.29
7930;BME280;4010;42.698;23.124;2023-02-17T07:13:36;118349.16;;;-140.64;65.87
7930;BME280;4010;42.698;23.124;2023-02-17T07:16:03;118349.16;;;-140.64;64.68
7930;BME280;4010;42.698;23.124;2023-02-17T07:18:30;118349.16;;;-140.64;64.41
7930;BME280;4010;42.698;23.124;2023-02-17T07:20:58;118349.16;;;-140.64;63.60
7930;BME280;4010;42.698;23.124;2023-02-17T07:23:25;118349.16;;;-140.64;63.38
7930;BME280;4010;42.698;23.124;2023-02-17T07:25:51;118349.16;;;-140.64;63.85
7930;BME280;4010;42.698;23.124;2023-02-17T07:28:18;118349.16;;;-140.64;62.02
7930;BME280;4010;42.698;23.124;2023-02-17T07:30:45;118349.16;;;-140.64;62.27
7930;BME280;4010;42.698;23.124;2023-02-17T07:33:12;118349.16;;;-140.64;62.73
7930;BME280;4010;42.698;23.124;2023-02-17T07:35:40;118349.16;;;-140.64;62.19
7930;BME280;4010;42.698;23.124;2023-02-17T07:38:11;118349.16;;;-140.64;61.37
7930;BME280;4010;42.698;23.124;2023-02-17T07:40:44;118349.16;;;-140.64;61.60
7930;BME280;4010;42.698;23.124;2023-02-17T07:43:11;118349.16;;;-140.64;61.25
7930;BME280;4010;42.698;23.124;2023-02-17T07:45:40;118349.16;;;-140.64;61.29
7930;BME280;4010;42.698;23.124;2023-02-17T07:48:06;118349.16;;;-140.64;60.59
7930;BME280;4010;42.698;23.124;2023-02-17T07:50:33;118349.16;;;-140.64;59.50
7930;BME280;4010;42.698;23.124;2023-02-17T07:53:00;118349.16;;;-140.64;59.90
7930;BME280;4010;42.698;23.124;2023-02-17T07:55:28;118349.16;;;-140.64;58.84
7930;BME280;4010;42.698;23.124;2023-02-17T07:57:54;118349.16;;;-140.64;57.47
7930;BME280;4010;42.698;23.124;2023-02-17T08:00:21;118349.16;;;-140.64;57.75
7930;BME280;4010;42.698;23.124;2023-02-17T08:02:48;118349.16;;;-140.64;57.40
7930;BME280;4010;42.698;23.124;2023-02-17T08:05:14;118349.16;;;-140.64;56.59
7930;BME280;4010;42.698;23.124;2023-02-17T08:07:41;118349.16;;;-140.64;56.48
7930;BME280;4010;42.698;23.124;2023-02-17T08:10:10;118349.16;;;-140.64;56.58
7930;BME280;4010;42.698;23.124;2023-02-17T08:12:56;118349.16;;;-140.64;55.46
7930;BME280;4010;42.698;23.124;2023-02-17T08:15:40;118349.16;;;-140.64;54.56
7930;BME280;4010;42.698;23.124;2023-02-17T08:18:07;118349.16;;;-140.64;55.24
7930;BME280;4010;42.698;23.124;2023-02-17T08:20:34;118349.16;;;-140.64;54.63
7930;BME280;4010;42.698;23.124;2023-02-17T08:23:00;118349.16;;;-140.64;54.82
7930;BME280;4010;42.698;23.124;2023-02-17T08:25:30;118349.16;;;-140.64;52.73
7930;BME280;4010;42.698;23.124;2023-02-17T08:27:58;118349.16;;;-140.64;52.79
7930;BME280;4010;42.698;23.124;2023-02-17T08:30:25;118349.16;;;-140.64;52.14
7930;BME280;4010;42.698;23.124;2023-02-17T08:32:51;118349.16;;;-140.64;52.13
7930;BME280;4010;42.698;23.124;2023-02-17T08:35:18;118349.16;;;-140.64;51.64
7930;BME280;4010;42.698;23.124;2023-02-17T08:37:46;118349.16;;;-140.64;53.25
7930;BME280;4010;42.698;23.124;2023-02-17T08:40:13;118349.16;;;-140.64;51.69
7930;BME280;4010;42.698;23.124;2023-02-17T08:42:40;118349.16;;;-140.64;51.36
7930;BME280;4010;42.698;23.124;2023-02-17T08:45:08;118349.16;;;-140.64;49.64
7930;BME280;4010;42.698;23.124;2023-02-17T08:47:35;118349.16;;;-140.64;49.10
7930;BME280;4010;42.698;23.124;2023-02-17T08:50:03;118349.16;;;-140.64;49.22
7930;BME280;4010;42.698;23.124;2023-02-17T08:52:30;118349.16;;;-140.64;47.66
7930;BME280;4010;42.698;23.124;2023-02-17T08:54:56;118349.16;;;-140.64;46.48
7930;BME280;4010;42.698;23.124;2023-02-17T08:57:23;118349.16;;;-140.64;47.06
7930;BME280;4010;42.698;23.124;2023-02-17T08:59:51;118349.16;;;-140.64;46.04
7930;BME280;4010;42.698;23.124;2023-02-17T09:02:19;118349.16;;;-140.64;44.42
7930;BME280;4010;42.698;23.124;2023-02-17T09:04:46;118349.16;;;-140.64;42.71
7930;BME280;4010;42.698;23.124;2023-02-17T09:07:13;118349.16;;;-140.64;42.61
7930;BME280;4010;42.698;23.124;2023-02-17T09:09:41;118349.16;;;-140.64;40.47
7930;BME280;4010;42.698;23.124;2023-02-17T09:12:08;118349.16;;;-140.64;40.15
7930;BME280;4010;42.698;23.124;2023-02-17T09:14:34;118349.16;;;-140.64;38.70
7930;BME280;4010;42.698;23.124;2023-02-17T09:17:01;118349.16;;;-140.64;39.49
7930;BME280;4010;42.698;23.124;2023-02-17T09:19:30;118349.16;;;-140.64;38.99
7930;BME280;4010;42.698;23.124;2023-02-17T09:21:57;118349.16;;;-140.64;37.93
7930;BME280;4010;42.698;23.124;2023-02-17T09:24:24;118349.16;;;-140.64;38.07
7930;BME280;4010;42.698;23.124;2023-02-17T09:26:50;118349.16;;;-140.64;37.23
7930;BME280;4010;42.698;23.124;2023-02-17T09:29:17;118349.16;;;-140.64;38.46
7930;BME280;4010;42.698;23.124;2023-02-17T09:31:44;118349.16;;;-140.64;37.68
7930;BME280;4010;42.698;23.124;2023-02-17T09:34:10;118349.16;;;-140.64;36.27
7930;BME280;4010;42.698;23.124;2023-02-17T09:36:40;118349.16;;;-140.64;36.59
7930;BME280;4010;42.698;23.124;2023-02-17T09:39:07;118349.16;;;-140.64;37.16
7930;BME280;4010;42.698;23.124;2023-02-17T09:41:37;118349.16;;;-140.64;37.18
7930;BME280;4010;42.698;23.124;2023-02-17T09:44:09;118349.16;;;-140.64;37.38
7930;BME280;4010;42.698;23.124;2023-02-17T09:46:42;118349.16;;;-140.64;36.04
7930;BME280;4010;42.698;23.124;2023-02-17T09:49:14;118349.16;;;-140.64;37.23
7930;BME280;4010;42.698;23.124;2023-02-17T09:51:46;118349.16;;;-140.64;36.25
7930;BME280;4010;42.698;23.124;2023-02-17T09:54:21;118349.16;;;-140.64;35.57
7930;BME280;4010;42.698;23.124;2023-02-17T09:56:50;118349.16;;;-140.64;35.49
7930;BME280;4010;42.698;23.124;2023-02-17T09:59:21;118349.16;;;-140.64;35.63
7930;BME280;4010;42.698;23.124;2023-02-17T10:01:51;118349.16;;;-140.64;36.37
7930;BME280;4010;42.698;23.124;2023-02-17T10:04:21;118349.16;;;-140.64;36.19
7930;BME280;4010;42.698;23.124;2023-02-17T10:06:53;118349.16;;;-140.64;34.89
7930;BME280;4010;42.698;23.124;2023-02-17T10:09:24;118349.16;;;-140.64;35.89
7930;BME280;4010;42.698;23.124;2023-02-17T10:11:58;118349.16;;;-140.64;35.26
7930;BME280;4010;42.698;23.124;2023-02-17T10:14:28;118349.16;;;-140.64;35.71
7930;BME280;4010;42.698;23.124;2023-02-17T10:17:01;118349.16;;;-140.64;35.54
7930;BME280;4010;42.698;23.124;2023-02-17T10:19:31;118349.16;;;-140.64;35.78
7930;BME280;4010;42.698;23.124;2023-02-17T10:22:05;118349.16;;;-140.64;35.78
7930;BME280;4010;42.698;23.124;2023-02-17T10:24:34;118349.16;;;-140.64;35.59
7930;BME280;4010;42.698;23.124;2023-02-17T10:27:13;118349.16;;;-140.64;35.96
7930;BME280;4010;42.698;23.124;2023-02-17T10:29:49;118349.16;;;-140.64;35.26
7930;BME280;4010;42.698;23.124;2023-02-17T10:32:21;118349.16;;;-140.64;34.35
7930;BME280;4010;42.698;23.124;2023-02-17T10:37:45;118349.16;;;-140.64;34.65
7930;BME280;4010;42.698;23.124;2023-02-17T10:40:18;118349.16;;;-140.64;36.44
7930;BME280;4010;42.698;23.124;2023-02-17T10:42:46;118349.16;;;-140.64;34.39
7930;BME280;4010;42.698;23.124;2023-02-17T10:45:25;118349.16;;;-140.64;35.01
7930;BME280;4010;42.698;23.124;2023-02-17T10:47:58;118349.16;;;-140.64;34.47
7930;BME280;4010;42.698;23.124;2023-02-17T10:50:27;118349.16;;;-140.64;35.07
7930;BME280;4010;42.698;23.124;2023-02-17T10:52:55;118349.16;;;-140.64;34.77
7930;BME280;4010;42.698;23.124;2023-02-17T10:55:30;118349.16;;;-140.64;35.33
7930;BME280;4010;42.698;23.124;2023-02-17T10:58:06;118349.16;;;-140.64;36.62
7930;BME280;4010;42.698;23.124;2023-02-17T11:00:36;118349.16;;;-140.64;35.87
7930;BME280;4010;42.698;23.124;2023-02-17T11:03:03;118349.16;;;-140.64;35.25
7930;BME280;4010;42.698;23.124;2023-02-17T11:05:31;118349.16;;;-140.64;36.00
7930;BME280;4010;42.698;23.124;2023-02-17T11:08:03;118349.16;;;-140.64;36.22
7930;BME280;4010;42.698;23.124;2023-02-17T11:10:32;118349.16;;;-140.64;36.00
7930;BME280;4010;42.698;23.124;2023-02-17T11:12:59;118349.16;;;-140.64;36.19
7930;BME280;4010;42.698;23.124;2023-02-17T11:15:30;118349.16;;;-140.64;35.77
7930;BME280;4010;42.698;23.124;2023-02-17T11:18:00;118349.16;;;-140.64;36.05
7930;BME280;4010;42.698;23.124;2023-02-17T11:20:34;118349.16;;;-140.64;35.22
7930;BME280;4010;42.698;23.124;2023-02-17T11:23:15;118349.16;;;-140.64;35.82
7930;BME280;4010;42.698;23.124;2023-02-17T11:25:55;118349.16;;;-140.64;35.41
7930;BME280;4010;42.698;23.124;2023-02-17T11:28:24;118349.16;;;-140.64;35.55
7930;BME280;4010;42.698;23.124;2023-02-17T11:30:53;118349.16;;;-140.64;35.01
7930;BME280;4010;42.698;23.124;2023-02-17T11:33:22;118349.16;;;-140.64;35.03
7930;BME280;4010;42.698;23.124;2023-02-17T11:35:54;118349.16;;;-140.64;35.00
7930;BME280;4010;42.698;23.124;2023-02-17T11:38:25;118349.16;;;-140.64;35.06
7930;BME280;4010;42.698;23.124;2023-02-17T11:40:55;118349.16;;;-140.64;35.62
7930;BME280;4010;42.698;23.124;2023-02-17T11:43:22;118349.16;;;-140.64;34.49
7930;BME280;4010;42.698;23.124;2023-02-17T11:45:54;118349.16;;;-140.64;34.45
7930;BME280;4010;42.698;23.124;2023-02-17T11:48:44;118349.16;;;-140.64;35.74
7930;BME280;4010;42.698;23.124;2023-02-17T11:51:19;118349.16;;;-140.64;34.75
7930;BME280;4010;42.698;23.124;2023-02-17T11:53:54;118349.16;;;-140.64;33.92
7930;BME280;4010;42.698;23.124;2023-02-17T11:56:28;118349.16;;;-140.64;34.02
7930;BME280;4010;42.698;23.124;2023-02-17T11:59:20;118349.16;;;-140.64;33.18
7930;BME280;4010;42.698;23.124;2023-02-17T12:02:13;118349.16;;;-140.64;33.64
7930;BME280;4010;42.698;23.124;2023-02-17T12:04:51;118349.16;;;-140.64;33.45
7930;BME280;4010;42.698;23.124;2023-02-17T12:07:43;118349.16;;;-140.64;33.40
7930;BME280;4010;42.698;23.124;2023-02-17T12:10:21;118349.16;;;-140.64;33.45
7930;BME280;4010;42.698;23.124;2023-02-17T12:13:12;118349.16;;;-140.64;33.42
7930;BME280;4010;42.698;23.124;2023-02-17T12:15:50;118349.16;;;-140.64;34.65
7930;BME280;4010;42.698;23.124;2023-02-17T12:18:32;118349.16;;;-140.64;33.39
7930;BME280;4010;42.698;23.124;2023-02-17T12:21:06;118349.16;;;-140.64;32.93
7930;BME280;4010;42.698;23.124;2023-02-17T12:23:51;118349.16;;;-140.64;33.62
7930;BME280;4010;42.698;23.124;2023-02-17T12:26:29;118349.16;;;-140.64;32.76
7930;BME280;4010;42.698;23.124;2023-02-17T12:31:56;118349.16;;;-140.64;32.92
7930;BME280;4010;42.698;23.124;2023-02-17T12:34:30;118349.16;;;-140.64;32.92
7930;BME280;4010;42.698;23.124;2023-02-17T12:37:00;118349.16;;;-140.64;32.72
7930;BME280;4010;42.698;23.124;2023-02-17T12:39:31;118349.16;;;-140.64;33.01
7930;BME280;4010;42.698;23.124;2023-02-17T12:42:05;118349.16;;;-140.64;32.34
7930;BME280;4010;42.698;23.124;2023-02-17T12:44:35;118349.16;;;-140.64;33.30
7930;BME280;4010;42.698;23.124;2023-02-17T12:47:11;118349.16;;;-140.64;33.28
7930;BME280;4010;42.698;23.124;2023-02-17T12:49:44;118349.16;;;-140.64;32.74
7930;BME280;4010;42.698;23.124;2023-02-17T12:52:17;118349.16;;;-140.64;32.80
7930;BME280;4010;42.698;23.124;2023-02-17T12:54:49;118349.16;;;-140.64;32.61
7930;BME280;4010;42.698;23.124;2023-02-17T12:57:21;118349.16;;;-140.64;32.56
7930;BME280;4010;42.698;23.124;2023-02-17T12:59:51;118349.16;;;-140.64;32.29
7930;BME280;4010;42.698;23.124;2023-02-17T13:02:20;118349.16;;;-140.64;32.47
7930;BME280;4010;42.698;23.124;2023-02-17T13:04:49;118349.16;;;-140.64;31.94